sensor_id;sensor_type;location;lat;lon;timestamp;pressure;altitude;pressure_sealevel;temperature;humidity
51053;BME280;37093;37.716;-122.060;2023-02-11T00:00:39;100301.68;;;15.60;43.53
51053;BME280;37093;37.716;-122.060;2023-02-11T00:03:08;100299.62;;;16.33;41.66
51053;BME280;37093;37.716;-122.060;2023-02-11T00:05:36;100293.84;;;16.57;42.29
51053;BME280;37093;37.716;-122.060;2023-02-11T00:08:05;100296.70;;;16.50;42.31
51053;BME280;37093;37.716;-122.060;2023-02-11T00:10:33;100294.73;;;16.30;43.05
51053;BME280;37093;37.716;-122.060;2023-02-11T00:13:02;100291.06;;;16.08;43.10
51053;BME280;37093;37.716;-122.060;2023-02-11T00:15:30;100290.98;;;15.70;43.07
51053;BME280;37093;37.716;-122.060;2023-02-11T00:17:59;100289.48;;;16.13;40.93
51053;BME280;37093;37.716;-122.060;2023-02-11T00:20:27;100293.55;;;16.20;40.35
51053;BME280;37093;37.716;-122.060;2023-02-11T00:22:57;100291.46;;;15.89;41.05
51053;BME280;37093;37.716;-122.060;2023-02-11T00:25:25;100295.94;;;14.53;42.48
51053;BME280;37093;37.716;-122.060;2023-02-11T00:27:53;100293.70;;;15.43;40.96
51053;BME280;37093;37.716;-122.060;2023-02-11T00:30:22;100294.88;;;15.67;40.10
51053;BME280;37093;37.716;-122.060;2023-02-11T00:32:50;100289.35;;;15.18;40.31
51053;BME280;37093;37.716;-122.060;2023-02-11T00:35:19;100292.31;;;14.97;40.50
51053;BME280;37093;37.716;-122.060;2023-02-11T00:37:47;100296.34;;;14.19;40.94
51053;BME280;37093;37.716;-122.060;2023-02-11T00:40:16;100297.36;;;15.10;39.06
51053;BME280;37093;37.716;-122.060;2023-02-11T00:42:45;100303.51;;;15.35;37.38
51053;BME280;37093;37.716;-122.060;2023-02-11T00:45:13;100305.39;;;14.12;39.15
51053;BME280;37093;37.716;-122.060;2023-02-11T00:47:42;100302.05;;;14.57;39.22
51053;BME280;37093;37.716;-122.060;2023-02-11T00:50:11;100299.99;;;14.04;40.10
51053;BME280;37093;37.716;-122.060;2023-02-11T00:52:40;100298.87;;;14.66;39.70
51053;BME280;37093;37.716;-122.060;2023-02-11T00:55:08;100293.30;;;14.80;38.89
51053;BME280;37093;37.716;-122.060;2023-02-11T00:57:36;100292.40;;;15.03;39.14
51053;BME280;37093;37.716;-122.060;2023-02-11T01:00:07;100295.86;;;15.00;37.84
51053;BME280;37093;37.716;-122.060;2023-02-11T01:02:35;100299.52;;;14.83;38.79
51053;BME280;37093;37.716;-122.060;2023-02-11T01:05:04;100304.03;;;14.67;38.03
51053;BME280;37093;37.716;-122.060;2023-02-11T01:07:32;100302.94;;;14.32;37.89
51053;BME280;37093;37.716;-122.060;2023-02-11T01:10:01;100304.32;;;14.53;37.88
51053;BME280;37093;37.716;-122.060;2023-02-11T01:12:30;100304.47;;;13.62;39.57
51053;BME280;37093;37.716;-122.060;2023-02-11T01:14:58;100298.06;;;14.10;38.21
51053;BME280;37093;37.716;-122.060;2023-02-11T01:17:27;100296.74;;;14.04;38.20
51053;BME280;37093;37.716;-122.060;2023-02-11T01:19:55;100298.98;;;14.32;38.17
51053;BME280;37093;37.716;-122.060;2023-02-11T01:22:24;100302.00;;;14.54;38.17
51053;BME280;37093;37.716;-122.060;2023-02-11T01:24:52;100294.69;;;14.31;38.52
51053;BME280;37093;37.716;-122.060;2023-02-11T01:27:21;100294.43;;;13.91;39.35
51053;BME280;37093;37.716;-122.060;2023-02-11T01:29:49;100293.02;;;14.40;39.00
51053;BME280;37093;37.716;-122.060;2023-02-11T01:32:18;100295.56;;;14.31;39.36
51053;BME280;37093;37.716;-122.060;2023-02-11T01:34:47;100299.42;;;14.19;39.36
51053;BME280;37093;37.716;-122.060;2023-02-11T01:37:15;100298.60;;;13.99;40.63
51053;BME280;37093;37.716;-122.060;2023-02-11T01:39:44;100302.28;;;13.71;42.76
51053;BME280;37093;37.716;-122.060;2023-02-11T01:42:16;100303.86;;;13.15;43.28
51053;BME280;37093;37.716;-122.060;2023-02-11T01:44:45;100302.16;;;13.11;43.61
51053;BME280;37093;37.716;-122.060;2023-02-11T01:47:17;100301.81;;;13.23;43.38
51053;BME280;37093;37.716;-122.060;2023-02-11T01:49:48;100303.95;;;13.41;43.33
51053;BME280;37093;37.716;-122.060;2023-02-11T01:52:20;100310.07;;;12.57;44.35
51053;BME280;37093;37.716;-122.060;2023-02-11T01:54:53;100309.21;;;13.27;43.25
51053;BME280;37093;37.716;-122.060;2023-02-11T01:57:26;100311.10;;;13.12;43.05
51053;BME280;37093;37.716;-122.060;2023-02-11T02:00:04;100316.96;;;13.31;42.46
51053;BME280;37093;37.716;-122.060;2023-02-11T02:02:41;100322.88;;;13.17;43.29
51053;BME280;37093;37.716;-122.060;2023-02-11T02:05:21;100325.87;;;12.29;43.10
51053;BME280;37093;37.716;-122.060;2023-02-11T02:07:59;100319.63;;;13.63;42.18
51053;BME280;37093;37.716;-122.060;2023-02-11T02:10:31;100315.17;;;13.70;40.60
51053;BME280;37093;37.716;-122.060;2023-02-11T02:13:01;100317.08;;;13.68;40.34
51053;BME280;37093;37.716;-122.060;2023-02-11T02:15:32;100322.47;;;13.09;40.66
51053;BME280;37093;37.716;-122.060;2023-02-11T02:18:05;100322.58;;;13.45;39.58
51053;BME280;37093;37.716;-122.060;2023-02-11T02:21:08;100326.59;;;13.19;39.62
51053;BME280;37093;37.716;-122.060;2023-02-11T02:24:02;100322.42;;;12.80;39.86
51053;BME280;37093;37.716;-122.060;2023-02-11T02:27:20;100323.34;;;13.02;39.71
51053;BME280;37093;37.716;-122.060;2023-02-11T02:30:16;100320.40;;;13.09;39.66
51053;BME280;37093;37.716;-122.060;2023-02-11T02:32:55;100323.75;;;13.83;39.02
51053;BME280;37093;37.716;-122.060;2023-02-11T02:35:33;100321.33;;;13.65;39.08
51053;BME280;37093;37.716;-122.060;2023-02-11T02:38:07;100323.19;;;13.00;39.49
51053;BME280;37093;37.716;-122.060;2023-02-11T02:40:42;100325.03;;;13.07;39.84
51053;BME280;37093;37.716;-122.060;2023-02-11T02:43:12;100318.01;;;13.29;39.81
51053;BME280;37093;37.716;-122.060;2023-02-11T02:45:41;100320.56;;;13.34;39.70
51053;BME280;37093;37.716;-122.060;2023-02-11T02:48:26;100325.24;;;13.86;39.15
51053;BME280;37093;37.716;-122.060;2023-02-11T02:51:04;100333.19;;;13.02;39.91
51053;BME280;37093;37.716;-122.060;2023-02-11T02:53:44;100332.40;;;13.45;40.12
51053;BME280;37093;37.716;-122.060;2023-02-11T02:56:20;100329.60;;;13.30;39.84
51053;BME280;37093;37.716;-122.060;2023-02-11T02:59:03;100326.75;;;13.59;39.58
51053;BME280;37093;37.716;-122.060;2023-02-11T03:01:42;100322.92;;;13.65;39.13
51053;BME280;37093;37.716;-122.060;2023-02-11T03:04:21;100314.74;;;13.45;39.55
51053;BME280;37093;37.716;-122.060;2023-02-11T03:06:56;100322.21;;;13.35;39.67
51053;BME280;37093;37.716;-122.060;2023-02-11T03:09:30;100330.49;;;13.42;39.83
51053;BME280;37093;37.716;-122.060;2023-02-11T03:12:02;100328.65;;;12.83;39.57
51053;BME280;37093;37.716;-122.060;2023-02-11T03:14:32;100331.80;;;13.16;38.73
51053;BME280;37093;37.716;-122.060;2023-02-11T03:17:02;100334.72;;;13.11;38.26
51053;BME280;37093;37.716;-122.060;2023-02-11T03:19:35;100337.96;;;13.09;38.25
51053;BME280;37093;37.716;-122.060;2023-02-11T03:22:09;100337.17;;;12.96;38.24
51053;BME280;37093;37.716;-122.060;2023-02-11T03:24:39;100337.44;;;12.68;38.21
51053;BME280;37093;37.716;-122.060;2023-02-11T03:27:14;100336.14;;;12.61;38.00
51053;BME280;37093;37.716;-122.060;2023-02-11T03:29:50;100334.99;;;12.14;38.92
51053;BME280;37093;37.716;-122.060;2023-02-11T03:32:24;100332.64;;;11.76;39.18
51053;BME280;37093;37.716;-122.060;2023-02-11T03:34:57;100336.64;;;12.43;38.06
51053;BME280;37093;37.716;-122.060;2023-02-11T03:37:30;100336.43;;;12.42;38.47
51053;BME280;37093;37.716;-122.060;2023-02-11T03:40:04;100335.11;;;11.44;40.16
51053;BME280;37093;37.716;-122.060;2023-02-11T03:42:41;100333.28;;;11.92;39.25
51053;BME280;37093;37.716;-122.060;2023-02-11T03:45:14;100341.33;;;12.15;38.75
51053;BME280;37093;37.716;-122.060;2023-02-11T03:47:47;100338.90;;;12.40;38.93
51053;BME280;37093;37.716;-122.060;2023-02-11T03:50:18;100337.01;;;11.49;39.96
51053;BME280;37093;37.716;-122.060;2023-02-11T03:52:48;100339.20;;;11.31;40.56
51053;BME280;37093;37.716;-122.060;2023-02-11T03:55:18;100337.84;;;11.44;40.30
51053;BME280;37093;37.716;-122.060;2023-02-11T03:57:48;100346.10;;;11.93;39.78
51053;BME280;37093;37.716;-122.060;2023-02-11T04:00:17;100342.87;;;11.39;40.50
51053;BME280;37093;37.716;-122.060;2023-02-11T04:02:45;100339.46;;;11.48;40.36
51053;BME280;37093;37.716;-122.060;2023-02-11T04:05:15;100346.78;;;11.26;40.38
51053;BME280;37093;37.716;-122.060;2023-02-11T04:07:43;100356.33;;;11.95;39.90
51053;BME280;37093;37.716;-122.060;2023-02-11T04:10:12;100346.29;;;11.17;40.99
51053;BME280;37093;37.716;-122.060;2023-02-11T04:12:40;100351.82;;;11.68;40.06
51053;BME280;37093;37.716;-122.060;2023-02-11T04:15:09;100354.58;;;11.57;40.07
51053;BME280;37093;37.716;-122.060;2023-02-11T04:17:38;100353.05;;;12.34;39.47
51053;BME280;37093;37.716;-122.060;2023-02-11T04:20:07;100346.92;;;11.86;40.11
51053;BME280;37093;37.716;-122.060;2023-02-11T04:22:35;100343.20;;;12.34;39.69
51053;BME280;37093;37.716;-122.060;2023-02-11T04:25:04;100343.79;;;12.21;39.93
51053;BME280;37093;37.716;-122.060;2023-02-11T04:27:33;100339.35;;;12.49;39.28
51053;BME280;37093;37.716;-122.060;2023-02-11T04:30:02;100346.37;;;12.26;39.31
51053;BME280;37093;37.716;-122.060;2023-02-11T04:32:30;100343.44;;;12.75;39.29
51053;BME280;37093;37.716;-122.060;2023-02-11T04:34:59;100337.56;;;12.20;39.56
51053;BME280;37093;37.716;-122.060;2023-02-11T04:37:27;100322.67;;;12.56;38.96
51053;BME280;37093;37.716;-122.060;2023-02-11T04:39:56;100321.56;;;12.25;39.60
51053;BME280;37093;37.716;-122.060;2023-02-11T04:42:25;100319.15;;;12.68;39.11
51053;BME280;37093;37.716;-122.060;2023-02-11T04:44:53;100317.52;;;13.00;38.88
51053;BME280;37093;37.716;-122.060;2023-02-11T04:47:22;100320.19;;;13.19;38.15
51053;BME280;37093;37.716;-122.060;2023-02-11T04:49:50;100322.68;;;13.25;38.40
51053;BME280;37093;37.716;-122.060;2023-02-11T04:52:19;100324.69;;;13.25;38.46
51053;BME280;37093;37.716;-122.060;2023-02-11T04:54:48;100328.40;;;13.48;38.33
51053;BME280;37093;37.716;-122.060;2023-02-11T04:57:16;100326.35;;;13.39;38.57
51053;BME280;37093;37.716;-122.060;2023-02-11T04:59:45;100329.13;;;13.01;39.06
51053;BME280;37093;37.716;-122.060;2023-02-11T05:02:13;100326.08;;;13.05;40.27
51053;BME280;37093;37.716;-122.060;2023-02-11T05:04:42;100325.24;;;12.55;40.26
51053;BME280;37093;37.716;-122.060;2023-02-11T05:07:10;100329.46;;;12.41;40.59
51053;BME280;37093;37.716;-122.060;2023-02-11T05:09:39;100325.33;;;12.70;40.06
51053;BME280;37093;37.716;-122.060;2023-02-11T05:12:08;100320.36;;;13.20;39.95
51053;BME280;37093;37.716;-122.060;2023-02-11T05:14:35;100323.64;;;13.30;39.45
51053;BME280;37093;37.716;-122.060;2023-02-11T05:17:04;100323.53;;;13.64;38.83
51053;BME280;37093;37.716;-122.060;2023-02-11T05:19:33;100323.79;;;13.44;39.13
51053;BME280;37093;37.716;-122.060;2023-02-11T05:22:01;100326.57;;;13.60;38.66
51053;BME280;37093;37.716;-122.060;2023-02-11T05:24:31;100323.61;;;13.48;38.94
51053;BME280;37093;37.716;-122.060;2023-02-11T05:26:59;100327.10;;;13.84;38.61
51053;BME280;37093;37.716;-122.060;2023-02-11T05:29:28;100328.30;;;12.88;40.46
51053;BME280;37093;37.716;-122.060;2023-02-11T05:31:57;100326.00;;;13.30;39.87
51053;BME280;37093;37.716;-122.060;2023-02-11T05:34:26;100327.71;;;12.31;41.11
51053;BME280;37093;37.716;-122.060;2023-02-11T05:36:54;100328.66;;;12.60;40.78
51053;BME280;37093;37.716;-122.060;2023-02-11T05:39:22;100330.42;;;12.68;41.37
51053;BME280;37093;37.716;-122.060;2023-02-11T05:41:51;100328.01;;;12.00;42.96
51053;BME280;37093;37.716;-122.060;2023-02-11T05:44:19;100329.39;;;12.53;42.12
51053;BME280;37093;37.716;-122.060;2023-02-11T05:46:48;100324.05;;;12.35;41.99
51053;BME280;37093;37.716;-122.060;2023-02-11T05:49:17;100328.59;;;12.21;42.15
51053;BME280;37093;37.716;-122.060;2023-02-11T05:51:45;100320.90;;;12.71;40.89
51053;BME280;37093;37.716;-122.060;2023-02-11T05:54:14;100322.65;;;12.91;40.91
51053;BME280;37093;37.716;-122.060;2023-02-11T05:56:42;100326.11;;;11.56;42.91
51053;BME280;37093;37.716;-122.060;2023-02-11T05:59:12;100313.42;;;13.18;40.80
51053;BME280;37093;37.716;-122.060;2023-02-11T06:01:42;100312.55;;;13.23;40.42
51053;BME280;37093;37.716;-122.060;2023-02-11T06:04:11;100309.75;;;13.36;40.47
51053;BME280;37093;37.716;-122.060;2023-02-11T06:06:39;100305.17;;;13.14;40.23
51053;BME280;37093;37.716;-122.060;2023-02-11T06:09:09;100300.16;;;13.16;40.41
51053;BME280;37093;37.716;-122.060;2023-02-11T06:11:37;100298.01;;;13.24;40.38
51053;BME280;37093;37.716;-122.060;2023-02-11T06:14:06;100292.20;;;13.76;39.43
51053;BME280;37093;37.716;-122.060;2023-02-11T06:16:35;100291.56;;;13.30;40.20
51053;BME280;37093;37.716;-122.060;2023-02-11T06:19:03;100280.17;;;12.77;40.68
51053;BME280;37093;37.716;-122.060;2023-02-11T06:21:31;100279.57;;;12.97;40.82
51053;BME280;37093;37.716;-122.060;2023-02-11T06:24:00;100276.98;;;13.20;40.78
51053;BME280;37093;37.716;-122.060;2023-02-11T06:26:28;100270.00;;;12.98;41.47
51053;BME280;37093;37.716;-122.060;2023-02-11T06:28:59;100265.15;;;13.22;40.85
51053;BME280;37093;37.716;-122.060;2023-02-11T06:31:28;100258.24;;;13.12;41.00
51053;BME280;37093;37.716;-122.060;2023-02-11T06:33:57;100254.00;;;12.32;42.29
51053;BME280;37093;37.716;-122.060;2023-02-11T06:36:25;100249.60;;;12.75;41.29
51053;BME280;37093;37.716;-122.060;2023-02-11T06:38:55;100249.33;;;12.56;41.60
51053;BME280;37093;37.716;-122.060;2023-02-11T06:41:23;100247.36;;;12.60;42.14
51053;BME280;37093;37.716;-122.060;2023-02-11T06:43:52;100244.46;;;12.66;41.99
51053;BME280;37093;37.716;-122.060;2023-02-11T06:46:20;100244.25;;;11.59;43.94
51053;BME280;37093;37.716;-122.060;2023-02-11T06:48:49;100246.33;;;12.38;42.71
51053;BME280;37093;37.716;-122.060;2023-02-11T06:51:18;100245.64;;;12.53;42.74
51053;BME280;37093;37.716;-122.060;2023-02-11T06:53:47;100251.90;;;12.41;42.86
51053;BME280;37093;37.716;-122.060;2023-02-11T06:56:17;100246.28;;;12.67;43.83
51053;BME280;37093;37.716;-122.060;2023-02-11T06:58:46;100246.02;;;12.54;44.40
51053;BME280;37093;37.716;-122.060;2023-02-11T07:01:15;100248.74;;;12.35;45.19
51053;BME280;37093;37.716;-122.060;2023-02-11T07:03:44;100245.79;;;12.16;45.62
51053;BME280;37093;37.716;-122.060;2023-02-11T07:06:15;100250.48;;;12.13;47.25
51053;BME280;37093;37.716;-122.060;2023-02-11T07:08:44;100247.62;;;12.07;48.56
51053;BME280;37093;37.716;-122.060;2023-02-11T07:11:15;100252.62;;;12.17;48.54
51053;BME280;37093;37.716;-122.060;2023-02-11T07:13:44;100252.71;;;12.23;48.37
51053;BME280;37093;37.716;-122.060;2023-02-11T07:16:14;100239.51;;;12.51;47.84
51053;BME280;37093;37.716;-122.060;2023-02-11T07:18:44;100233.04;;;12.62;47.58
51053;BME280;37093;37.716;-122.060;2023-02-11T07:21:16;100228.00;;;12.55;47.30
51053;BME280;37093;37.716;-122.060;2023-02-11T07:23:45;100225.02;;;12.95;46.50
51053;BME280;37093;37.716;-122.060;2023-02-11T07:26:15;100223.10;;;13.28;45.30
51053;BME280;37093;37.716;-122.060;2023-02-11T07:28:44;100214.13;;;13.09;45.96
51053;BME280;37093;37.716;-122.060;2023-02-11T07:31:14;100213.82;;;13.30;45.75
51053;BME280;37093;37.716;-122.060;2023-02-11T07:33:43;100211.95;;;13.21;45.64
51053;BME280;37093;37.716;-122.060;2023-02-11T07:36:13;100213.84;;;13.13;45.59
51053;BME280;37093;37.716;-122.060;2023-02-11T07:38:42;100215.65;;;13.23;45.46
51053;BME280;37093;37.716;-122.060;2023-02-11T07:41:12;100220.57;;;13.05;45.74
51053;BME280;37093;37.716;-122.060;2023-02-11T07:43:42;100212.10;;;13.29;45.45
51053;BME280;37093;37.716;-122.060;2023-02-11T07:46:14;100208.61;;;13.10;44.87
51053;BME280;37093;37.716;-122.060;2023-02-11T07:48:43;100206.97;;;13.23;45.09
51053;BME280;37093;37.716;-122.060;2023-02-11T07:51:13;100203.06;;;13.06;44.47
51053;BME280;37093;37.716;-122.060;2023-02-11T07:53:42;100202.83;;;13.00;45.56
51053;BME280;37093;37.716;-122.060;2023-02-11T07:56:12;100202.01;;;12.82;46.71
51053;BME280;37093;37.716;-122.060;2023-02-11T07:58:42;100194.36;;;12.34;47.80
51053;BME280;37093;37.716;-122.060;2023-02-11T08:01:15;100196.90;;;11.54;47.92
51053;BME280;37093;37.716;-122.060;2023-02-11T08:03:45;100191.55;;;11.79;46.20
51053;BME280;37093;37.716;-122.060;2023-02-11T08:06:15;100186.48;;;13.21;44.44
51053;BME280;37093;37.716;-122.060;2023-02-11T08:08:44;100185.11;;;13.78;44.50
51053;BME280;37093;37.716;-122.060;2023-02-11T08:11:14;100184.11;;;13.35;45.81
51053;BME280;37093;37.716;-122.060;2023-02-11T08:13:43;100182.88;;;12.80;46.92
51053;BME280;37093;37.716;-122.060;2023-02-11T08:16:18;100177.00;;;12.85;47.13
51053;BME280;37093;37.716;-122.060;2023-02-11T08:18:47;100176.41;;;13.01;46.91
51053;BME280;37093;37.716;-122.060;2023-02-11T08:21:16;100172.52;;;12.45;47.61
51053;BME280;37093;37.716;-122.060;2023-02-11T08:23:45;100162.07;;;12.22;49.68
51053;BME280;37093;37.716;-122.060;2023-02-11T08:26:17;100164.57;;;12.07;48.91
51053;BME280;37093;37.716;-122.060;2023-02-11T08:28:48;100158.99;;;12.34;48.86
51053;BME280;37093;37.716;-122.060;2023-02-11T08:31:19;100153.95;;;12.49;47.97
51053;BME280;37093;37.716;-122.060;2023-02-11T08:33:48;100144.15;;;12.95;47.69
51053;BME280;37093;37.716;-122.060;2023-02-11T08:36:19;100137.93;;;12.82;47.67
51053;BME280;37093;37.716;-122.060;2023-02-11T08:38:48;100131.79;;;12.88;47.45
51053;BME280;37093;37.716;-122.060;2023-02-11T08:41:17;100127.02;;;13.08;47.06
51053;BME280;37093;37.716;-122.060;2023-02-11T08:43:46;100119.21;;;12.83;47.49
51053;BME280;37093;37.716;-122.060;2023-02-11T08:46:16;100118.25;;;12.95;46.89
51053;BME280;37093;37.716;-122.060;2023-02-11T08:48:45;100114.44;;;12.84;47.35
51053;BME280;37093;37.716;-122.060;2023-02-11T08:51:16;100115.28;;;12.72;47.29
51053;BME280;37093;37.716;-122.060;2023-02-11T08:53:45;100112.96;;;12.55;46.92
51053;BME280;37093;37.716;-122.060;2023-02-11T08:56:16;100108.16;;;11.86;49.42
51053;BME280;37093;37.716;-122.060;2023-02-11T08:58:44;100104.68;;;12.40;47.94
51053;BME280;37093;37.716;-122.060;2023-02-11T09:01:14;100098.82;;;12.63;48.09
51053;BME280;37093;37.716;-122.060;2023-02-11T09:03:43;100094.69;;;12.46;48.83
51053;BME280;37093;37.716;-122.060;2023-02-11T09:06:13;100087.92;;;12.23;49.04
51053;BME280;37093;37.716;-122.060;2023-02-11T09:08:42;100085.76;;;12.02;49.14
51053;BME280;37093;37.716;-122.060;2023-02-11T09:11:12;100085.80;;;11.99;50.66
51053;BME280;37093;37.716;-122.060;2023-02-11T09:13:41;100087.16;;;11.69;50.87
51053;BME280;37093;37.716;-122.060;2023-02-11T09:16:16;100078.50;;;12.17;49.89
51053;BME280;37093;37.716;-122.060;2023-02-11T09:18:45;100081.81;;;12.83;50.20
51053;BME280;37093;37.716;-122.060;2023-02-11T09:21:16;100085.00;;;12.50;50.03
51053;BME280;37093;37.716;-122.060;2023-02-11T09:23:45;100086.03;;;12.63;50.04
51053;BME280;37093;37.716;-122.060;2023-02-11T09:26:16;100085.92;;;12.74;49.69
51053;BME280;37093;37.716;-122.060;2023-02-11T09:28:44;100080.83;;;12.53;49.91
51053;BME280;37093;37.716;-122.060;2023-02-11T09:31:15;100083.30;;;12.71;49.92
51053;BME280;37093;37.716;-122.060;2023-02-11T09:33:46;100079.66;;;12.88;49.37
51053;BME280;37093;37.716;-122.060;2023-02-11T09:36:17;100075.71;;;13.01;49.24
51053;BME280;37093;37.716;-122.060;2023-02-11T09:38:46;100075.48;;;12.91;49.26
51053;BME280;37093;37.716;-122.060;2023-02-11T09:41:32;100070.19;;;13.32;48.53
51053;BME280;37093;37.716;-122.060;2023-02-11T09:44:05;100062.90;;;13.15;48.32
51053;BME280;37093;37.716;-122.060;2023-02-11T09:46:40;100062.60;;;13.28;48.54
51053;BME280;37093;37.716;-122.060;2023-02-11T09:49:17;100057.81;;;13.39;48.34
51053;BME280;37093;37.716;-122.060;2023-02-11T09:51:50;100055.84;;;13.19;48.09
51053;BME280;37093;37.716;-122.060;2023-02-11T09:54:25;100053.12;;;13.27;47.87
51053;BME280;37093;37.716;-122.060;2023-02-11T09:56:55;100049.25;;;13.02;47.47
51053;BME280;37093;37.716;-122.060;2023-02-11T09:59:24;100044.95;;;12.80;48.31
51053;BME280;37093;37.716;-122.060;2023-02-11T10:01:57;100040.99;;;12.71;48.77
51053;BME280;37093;37.716;-122.060;2023-02-11T10:04:42;100033.25;;;12.84;48.95
51053;BME280;37093;37.716;-122.060;2023-02-11T10:07:18;100026.10;;;12.75;49.02
51053;BME280;37093;37.716;-122.060;2023-02-11T10:09:59;100021.01;;;12.22;50.39
51053;BME280;37093;37.716;-122.060;2023-02-11T10:12:46;100013.79;;;12.72;48.77
51053;BME280;37093;37.716;-122.060;2023-02-11T10:15:26;100011.00;;;12.03;49.51
51053;BME280;37093;37.716;-122.060;2023-02-11T10:18:07;100011.05;;;12.46;49.27
51053;BME280;37093;37.716;-122.060;2023-02-11T10:20:48;100004.99;;;12.41;49.15
51053;BME280;37093;37.716;-122.060;2023-02-11T10:23:25;100002.93;;;12.99;48.85
51053;BME280;37093;37.716;-122.060;2023-02-11T10:25:57;100000.18;;;12.91;48.92
51053;BME280;37093;37.716;-122.060;2023-02-11T10:28:30;99995.47;;;12.99;48.99
51053;BME280;37093;37.716;-122.060;2023-02-11T10:31:01;99991.63;;;13.13;48.45
51053;BME280;37093;37.716;-122.060;2023-02-11T10:33:32;99991.17;;;13.18;49.23
51053;BME280;37093;37.716;-122.060;2023-02-11T10:36:02;99985.33;;;12.75;49.22
51053;BME280;37093;37.716;-122.060;2023-02-11T10:38:30;99978.17;;;12.67;48.96
51053;BME280;37093;37.716;-122.060;2023-02-11T10:40:59;99972.84;;;12.60;49.27
51053;BME280;37093;37.716;-122.060;2023-02-11T10:43:29;99970.61;;;12.51;50.37
51053;BME280;37093;37.716;-122.060;2023-02-11T10:46:01;99961.90;;;12.26;50.08
51053;BME280;37093;37.716;-122.060;2023-02-11T10:48:42;99962.61;;;12.28;49.89
51053;BME280;37093;37.716;-122.060;2023-02-11T10:51:21;99963.74;;;12.24;49.82
51053;BME280;37093;37.716;-122.060;2023-02-11T10:54:08;99961.46;;;12.19;50.11
51053;BME280;37093;37.716;-122.060;2023-02-11T10:56:40;99958.49;;;12.05;51.02
51053;BME280;37093;37.716;-122.060;2023-02-11T10:59:18;99955.17;;;11.65;51.11
51053;BME280;37093;37.716;-122.060;2023-02-11T11:01:50;99950.61;;;11.59;52.16
51053;BME280;37093;37.716;-122.060;2023-02-11T11:04:36;99940.57;;;11.28;52.55
51053;BME280;37093;37.716;-122.060;2023-02-11T11:07:17;99942.10;;;10.55;53.01
51053;BME280;37093;37.716;-122.060;2023-02-11T11:09:50;99941.80;;;10.73;53.74
51053;BME280;37093;37.716;-122.060;2023-02-11T11:12:30;99943.33;;;11.17;53.17
51053;BME280;37093;37.716;-122.060;2023-02-11T11:15:00;99941.32;;;10.68;51.96
51053;BME280;37093;37.716;-122.060;2023-02-11T11:17:29;99941.46;;;11.35;51.42
51053;BME280;37093;37.716;-122.060;2023-02-11T11:20:15;99938.04;;;11.80;51.08
51053;BME280;37093;37.716;-122.060;2023-02-11T11:22:46;99936.78;;;11.30;50.20
51053;BME280;37093;37.716;-122.060;2023-02-11T11:25:25;99935.91;;;10.97;50.91
51053;BME280;37093;37.716;-122.060;2023-02-11T11:27:58;99932.13;;;11.41;49.90
51053;BME280;37093;37.716;-122.060;2023-02-11T11:30:32;99925.33;;;11.65;51.78
51053;BME280;37093;37.716;-122.060;2023-02-11T11:33:01;99924.13;;;11.16;52.23
51053;BME280;37093;37.716;-122.060;2023-02-11T11:35:30;99922.08;;;10.15;54.59
51053;BME280;37093;37.716;-122.060;2023-02-11T11:38:01;99922.53;;;10.87;52.17
51053;BME280;37093;37.716;-122.060;2023-02-11T11:40:32;99917.60;;;11.02;52.69
51053;BME280;37093;37.716;-122.060;2023-02-11T11:43:08;99918.43;;;11.35;51.85
51053;BME280;37093;37.716;-122.060;2023-02-11T11:45:54;99905.30;;;10.81;51.34
51053;BME280;37093;37.716;-122.060;2023-02-11T11:48:25;99902.32;;;11.40;50.11
51053;BME280;37093;37.716;-122.060;2023-02-11T11:50:58;99897.35;;;11.60;50.63
51053;BME280;37093;37.716;-122.060;2023-02-11T11:53:33;99894.74;;;11.95;49.86
51053;BME280;37093;37.716;-122.060;2023-02-11T11:56:05;99895.11;;;12.61;48.78
51053;BME280;37093;37.716;-122.060;2023-02-11T11:58:33;99894.57;;;12.26;48.52
51053;BME280;37093;37.716;-122.060;2023-02-11T12:01:14;99897.98;;;11.19;51.18
51053;BME280;37093;37.716;-122.060;2023-02-11T12:04:37;99893.55;;;11.46;50.16
51053;BME280;37093;37.716;-122.060;2023-02-11T12:07:18;99885.38;;;10.97;52.50
51053;BME280;37093;37.716;-122.060;2023-02-11T12:10:08;99890.68;;;11.19;52.03
51053;BME280;37093;37.716;-122.060;2023-02-11T12:12:51;99884.35;;;11.57;51.45
51053;BME280;37093;37.716;-122.060;2023-02-11T12:15:33;99878.27;;;11.35;51.52
51053;BME280;37093;37.716;-122.060;2023-02-11T12:18:15;99878.64;;;11.93;50.83
51053;BME280;37093;37.716;-122.060;2023-02-11T12:21:00;99868.59;;;11.54;50.66
51053;BME280;37093;37.716;-122.060;2023-02-11T12:23:42;99865.13;;;10.95;53.04
51053;BME280;37093;37.716;-122.060;2023-02-11T12:26:15;99861.50;;;10.52;54.67
51053;BME280;37093;37.716;-122.060;2023-02-11T12:28:57;99861.50;;;10.93;54.99
51053;BME280;37093;37.716;-122.060;2023-02-11T12:31:36;99860.48;;;10.76;54.87
51053;BME280;37093;37.716;-122.060;2023-02-11T12:34:20;99858.04;;;10.60;55.20
51053;BME280;37093;37.716;-122.060;2023-02-11T12:36:59;99856.43;;;10.78;53.47
51053;BME280;37093;37.716;-122.060;2023-02-11T12:39:39;99856.17;;;10.85;53.52
51053;BME280;37093;37.716;-122.060;2023-02-11T12:42:57;99859.51;;;11.07;52.93
51053;BME280;37093;37.716;-122.060;2023-02-11T12:45:42;99856.26;;;11.88;50.94
51053;BME280;37093;37.716;-122.060;2023-02-11T12:48:24;99853.42;;;10.78;52.62